0LL2 weather

Murk's Strip
St. Augustine, Illinois, United States

Public forecast

Using degrees Fahrenheit for public forecast. Weather courtesy of forecast.io.

Closest aviation weather report (METAR) to Murk's Strip

Closest report is Galesburg Municipal Airport, 12.2 nm (22.5 km) N. Retrieved 2020/05/27 12:35 UTC (4 minutes ago):

KGBG 271235Z AUTO 13006KT 10SM CLR 21/18 A2994 RMK AO2 T02070176

Closest aviation forecast (TAF) to Murk's Strip

Closest forecast is General Wayne A. Downing Peoria International Airport, 31.6 nm (58.5 km) E. Retrieved 2020/05/27 12:22 UTC (17 minutes ago):

TAF KPIA 271120Z 2712/2812 15008KT P6SM BKN080 FM271500 16009KT P6SM VCSH BKN030 FM271900 16010G18KT 6SM -SHRA VCTS BKN045CB FM280100 15007KT P6SM VCSH BKN020 FM280600 16006KT P6SM OVC012